Terminal Aerodrome Forecast
Issued by NWS Cleveland, OH

Home | Current Version | Previous Version | Text Only | Print | Product List | Glossary Off
Versions: 1 2 3 4 5 6 7 8 9 10 11 12 13 14 15 16 17 18 19

000
FTUS41 KCLE 220530
TAFMFD
TAF
KMFD 220530Z 2206/2306 VRB03KT P6SM FEW080
     FM220900 VRB03KT 6SM BR VCTS SCT030CB BKN100
     FM221100 16004KT 5SM -TSRA BKN040CB
      TEMPO 2211/2214 2SM TS OVC025CB
     FM221500 22007KT 6SM -SHRA VCTS SCT030CB OVC040
     FM221800 22010KT P6SM SCT030 BKN045
     FM230500 22010KT 6SM BR BKN025=

USA.gov is the U.S. government's official web portal to all federal, state and local government web resources and services.